Florida AWOS List, Phone Numbers

USA |  
| Search AWOS

Rocky Mountain States: Montana | Wyoming | Colorado | New Mexico

Complete weather reports: Florida

Legend: KFNL = METAR available Follow your local AWOS on AV Mobile = METAR available on AV Mobile
Station Florida Location Frequency Phone
KAQQICAO ID KAQQ Apalachicola, Apalachicola
KAAFFAA ID AAF, ASOS, KAAF 290453Z AUTO 00000KT 10SM CLR 26/25 A3005 Follow KAAF on AV Mobile APALACHICOLA MUNICIPAL AIRPORT 119.925 850-653-8271
KNAEICAO ID KNAE Astor, Bombing Range Detachment Astor
KAVOFAA ID AVO, AWOS-3 AVON PARK 118.725 863-453-4223
KAGRFAA ID AGR Avon Park Gunnery Range
KBOWFAA ID BOW, AWOS-3, KBOW 290455Z AUTO 00000KT 10SM CLR 26/24 A3007 RMK AO2 Follow KBOW on AV Mobile Bartow Municipal 123.775 863-533-9004
F95FAA ID F95, AWOS-AV, KANQ 290645Z AUTO 00000KT 10SM CLR 22/17 A2993 RMK Follow  on AV Mobile BLOUNTSTOWN 119.350 850-674-1347
KBCTFAA ID BCT, AWOS-3, KBCT 290247Z 12010KT 10SM SCT019 BKN026 29/26 E3005 RMK LAST Follow KBCT on AV Mobile Boca Raton, Boca Raton Airport 121.125 561-391-2696
K1J0FAA ID 1J0, K1J0 290358Z AUTO 00000KT 10SM CLR 26/24 A3005 RMK AO2 SLP132 T02610239 Follow K1J0 on AV Mobile TRI COUNTY AIRPORT
KBKVFAA ID BKV, ASOS, KBKV 290453Z AUTO 00000KT 10SM CLR 26/24 A3006 RMK AO2 SLP178 T02560239 403500233 Follow KBKV on AV Mobile BROOKSVILLE HERNANDO CO AIRPORT 134.725 352-799-5881
K1J4ICAO ID K1J4 Cape San Blas Coast Guard Station
KNZCICAO ID KNZC Cecil, Naval Air Station
KCLWFAA ID CLW, AWOS-3P, KCLW 290535Z AUTO 00000KT 10SM CLR 27/23 A3005 RMK AO2 Follow KCLW on AV Mobile CLEARWATER 119.225 727-449-2184
2ISFAA ID 2IS, AWOS-3, KANQ 290645Z AUTO 00000KT 10SM CLR 22/17 A2993 RMK Follow  on AV Mobile CLEWISTON 124.175 863-983-7020
KX53ICAO ID KX53 Clewiston
KCOFFAA ID COF, KCOF 290458Z AUTO 14004KT 10SM FEW050 28/24 A3005 RMK AO2 SLP180 T02800239 403250267 $ Follow KCOF on AV Mobile Cocoa / Patrick Air Force Base
KXMRFAA ID XMR, KXMR 290458Z AUTO 19007KT 10SM CLR 27/25 A3004 RMK AO2 SLP176 T02740246 403440258 $ Follow KXMR on AV Mobile Cocoa Beach, Cape Canaveral Air Force Station Skid Strip
KCEWFAA ID CEW, ASOS, KCEW 290453Z AUTO 00000KT 10SM CLR 25/23 A3005 Follow KCEW on AV Mobile CRESTVIEW SIKES AIRPORT 119.275 850-682-1237
KEGIFAA ID EGI, KEGI 290455Z 21003KT 10SM CLR 25/24 A3004 RMK AO2A SLP171 T02530236 $ Follow KEGI on AV Mobile Duke Field / Eglin Auxiliary
KCTYFAA ID CTY, KCTY 290453Z AUTO 00000KT 25/23 A3005 Follow KCTY on AV Mobile CROSS CITY AIRPORT
KCGCFAA ID CGC, AWOS-3, KCGC 290455Z AUTO 00000KT 10SM CLR 25/25 A3005 RMK AO2 Follow KCGC on AV Mobile CRYSTAL RIVER 118.325 352-563-6600
KDABFAA ID DAB, ASOS, KDAB 290453Z 18006KT 10SM CLR 27/23 A3005 Follow KDAB on AV Mobile DAYTONA BEACH INTERNATIONAL 386-253-7469
54JFAA ID 54J, AWOS-3P, KANQ 290645Z AUTO 00000KT 10SM CLR 22/17 A2993 RMK Follow  on AV Mobile DEFUNIAK SPRINGS 118.725 850-892-0147
KDEDFAA ID DED, AWOS-3, KDED 070135Z AUTO 00000KT 23/22 A3011 RMK AO1 P0004 Follow KDED on AV Mobile DELAND 119.575 386-740-5811
KDTSFAA ID DTS, ASOS, KDTS 290453Z AUTO VRB03KT 10SM FEW028 31/25 A3003 RMK AO2 SLP169 T03110250 TSNO Follow KDTS on AV Mobile DESTIN-FT WALTON BEACH AIRPORT 133.925 850-654-7128
KX91ICAO ID KX91 Egmont Key Coast Guard Station
KFHBFAA ID FHB, AWOS-3, KFHB 290515Z AUTO 24004KT 10SM CLR 28/26 A3002 RMK AO1 Follow KFHB on AV Mobile FERNANDINA BEACH 118.075 904-277-7323
KFXEFAA ID FXE, ASOS, KFXE 290453Z 16003KT 10SM FEW025 28/24 A3004 Follow KFXE on AV Mobile FORT LAUDERDALE EXECUTIVE 954-772-2537
KFLLFAA ID FLL, ASOS, KFLL 290453Z 14006KT 10SM FEW022 SCT028 29/25 A3003 Follow KFLL on AV Mobile FORT LAUDERDALE/HOLLYWOOD 954-359-7857
KFMYFAA ID FMY, ASOS, KFMY 290453Z AUTO 00000KT 10SM BKN037 27/24 A3005 RMK AO2 SLP178 T02720239 403440250 Follow KFMY on AV Mobile FORT MYERS PAGE FIELD 239-936-2318
KRSWFAA ID RSW, ASOS, KRSW 290453Z 00000KT 10SM FEW030 FEW038 27/23 A3006 Follow KRSW on AV Mobile FORT MYERS SW FL INTERNATIONAL AIRPORT 239-561-0966
KX82ICAO ID KX82 Fort Pierce Coast Guard Station
KFPRFAA ID FPR, ASOS, KFPR 290453Z AUTO 00000KT 10SM CLR 24/23 A3006 Follow KFPR on AV Mobile FORT PIERCE ST LUCIE 772-489-4281
KX86ICAO ID KX86 Fowey Rocks Coast Guard Station
KX89ICAO ID KX89 Ft. Myers Beach Coast Guard Station
KGNVFAA ID GNV, ASOS, KGNV 290453Z AUTO 00000KT 10SM CLR 25/22 A3006 Follow KGNV on AV Mobile GAINESVILLE REGIONAL AIRPORT 352-335-8672
KHWOFAA ID HWO, ASOS, KHWO 290453Z AUTO 11003KT 10SM CLR 29/24 A3005 RMK AO2 SLP176 T02890244 403390267 TSNO Follow KHWO on AV Mobile HOLLYWOOD NORTH PERRY AIRPORT 954-983-5904
X51FAA ID X51, AWOS-3, KANQ 290645Z AUTO 00000KT 10SM CLR 22/17 A2993 RMK Follow  on AV Mobile HOMESTEAD 118.375 (305) 247-2791
KHSTFAA ID HST, KHST 290458Z AUTO 23002KT 10SM CLR 28/25 A3003 RMK AO2 SLP172 T02750253 403280261 Follow KHST on AV Mobile Homestead Air Force Base
KIMMFAA ID IMM, AWOS-3, KIMM 161355Z AUTO 10007KT FEW016 A3015 RMK A01 P000 Follow KIMM on AV Mobile IMMOKALEE 118.525 239-657-2038
KINFFAA ID INF, AWOS-3, KINF 290515Z AUTO 00000KT 10SM CLR 25/25 A3006 RMK AO2 Follow KINF on AV Mobile INVERNESS 119.975 352-341-0264
KX84ICAO ID KX84 Islamorada Coast Guard Station
KHEGFAA ID HEG, AWOS-3 JACKSONVILLE 119.275 904-695-0334
KCRGFAA ID CRG, ASOS, KCRG 290453Z AUTO 25003KT 10SM CLR 29/23 A3003 RMK AO2 SLP170 T02890233 403670250 Follow KCRG on AV Mobile JACKSONVILLE CRAIG MUN 904-646-4670
KJAXFAA ID JAX, ASOS, KJAX 290456Z 24004KT 10SM FEW250 27/25 A3003 Follow KJAX on AV Mobile JACKSONVILLE INTERNATIONAL 904-741-4304
KNIPFAA ID NIP, KNIP 290453Z 25005KT 10SM FEW120 SCT250 29/23 A3004 RMK AO2 SLP169 T02940233 403780272 $ Follow KNIP on AV Mobile JACKSONVILLE NAVAL AIR STN
KVQQFAA ID VQQ, AWOS-3, KVQQ 290455Z AUTO 00000KT 10SM CLR 24/23 A3004 RMK AO2 PWINO Follow KVQQ on AV Mobile Jacksonville, Cecil Field Airport 125.275 904-778-6934
KNENFAA ID NEN NOLF WHITEHOUSE FIELD, FL
KX80ICAO ID KX80 Jupiter Inlet Coast Guard Station
KEYWFAA ID EYW, ASOS, KEYW 290453Z AUTO 12011KT 10SM FEW016 29/27 A3003 Follow KEYW on AV Mobile KEY WEST INTERNATIONAL AIRPORT 119.65 305-292-4046
KNQXFAA ID NQX, KNQX 290509Z AUTO 14008KT 10SM SCT017 29/26 A3003 RMK AO2 T02890256 $ Follow KNQX on AV Mobile KEY WEST NAVAL AIR STATION
K42JFAA ID 42J, AWOS-3, K42J 290515Z AUTO 00000KT 10SM CLR 25/23 A3006 RMK AO1 TSNO Follow K42J on AV Mobile KEYSTONE HEIGHTS 124.275 352-473-8273
KLCQFAA ID LCQ, AWOS-3, KLCQ 290515Z AUTO 25003KT 10SM CLR 25/23 A3005 RMK AO2 Follow KLCQ on AV Mobile LAKE CITY 120.675 386-754-9366
X07FAA ID X07, AWOS-3, KANQ 290645Z AUTO 00000KT 10SM CLR 22/17 A2993 RMK Follow  on AV Mobile LAKE WALES 124.225 863-678-1334
KX81ICAO ID KX81 Lake Worth Inlet
KLALFAA ID LAL, AWOS-3PT, KLAL 290515Z AUTO 00000KT 10SM SCT060 27/24 A3007 RMK AO2 LTG DSNT SW Follow KLAL on AV Mobile Lakeland Regional 118.025 863-834-2030
KLEEFAA ID LEE, ASOS, KLEE 290453Z AUTO 00000KT 10SM BKN050 29/23 A3007 RMK AO2 SLP179 T02890228 403500250 PWINO Follow KLEE on AV Mobile LEESBURG REGIONAL AIRPORT 134.325 352-787-1565
K24JFAA ID 24J, AWOS-3, K24J 290535Z AUTO 00000KT 26/26 A3006 RMK AO1 Follow K24J on AV Mobile LIVE OAK 118.225 386-362-1731
KX88ICAO ID KX88 Marathon Coast Guard Station
KMTHFAA ID MTH, ASOS, KMTH 290453Z AUTO 13006KT 10SM CLR 29/26 A3003 RMK AO2 SLP168 T02890256 403110261 Follow KMTH on AV Mobile MARATHON AIRPORT 135.525 305-743-8373
KMKYFAA ID MKY, AWOS-3, KMKY 290515Z AUTO 06003KT 10SM CLR 25/22 A3006 RMK AO1 Follow KMKY on AV Mobile MARCO ISLAND 120.075 239-394-8187
KMAIFAA ID MAI, ASOS, KMAI 290453Z AUTO 21004KT 10SM CLR 26/24 A3003 RMK AO2 SLP168 T02610244 Follow KMAI on AV Mobile MARIANNA MUNICIPAL AIRPORT 133.525 850-482-6082
KHRTFAA ID HRT, KHRT 290458Z 00000KT 9SM CLR 29/23 A3003 RMK AO2A SLP171 T02930234 $ Follow KHRT on AV Mobile Hurlburt Field
KNRBFAA ID NRB, KNRB 290452Z COR 23005KT 10SM SCT250 28/23 A3003 RMK AO2 SLP168 T02780233 403440261 Follow KNRB on AV Mobile MAYPORT NAVAL AIR FACILITY
KMLBFAA ID MLB, ASOS, KMLB 290453Z AUTO 17004KT 10SM BKN050 27/24 A3006 Follow KMLB on AV Mobile MELBOURNE INTERNATIONAL 321-723-7403
KCOIFAA ID COI, AWOS-3 Merritt Island, Merritt Island Airport 119.025 321-986-8864
KTNTFAA ID TNT, AWOS-3 MIAMI 119.075 (239) 695-9198
KX87ICAO ID KX87 Miami Beach Coast Guard Station
KAMXICAO ID KAMX Miami Nexrad
KTMBFAA ID TMB, ASOS, KTMB 290516Z 32003KT 10SM FEW021 SCT025 SCT042 27/25 A3004 Follow KTMB on AV Mobile KENDALL-TAMIAMI EXEC AIRPORT 305-235-1332
KMIAFAA ID MIA, ASOS, KMIA 290453Z 12004KT 10SM FEW025 SCT250 28/25 A3004 Follow KMIA on AV Mobile MIAMI INTERNATIONAL AIRPORT 305-870-0235
KOPFFAA ID OPF, KOPF 290453Z AUTO 13004KT 10SM CLR 28/24 A3004 Follow KOPF on AV Mobile MIAMI OPA LOCKA AIRPORT
KNFJFAA ID NFJ CHOCTAW, WHITING FIELD, NOLF
KNSEFAA ID NSE, KNSE 290456Z AUTO 24004KT 10SM CLR 26/24 A3004 RMK AO2 SLP156 T02560244 $ Follow KNSE on AV Mobile MILTON WHITING FIELD (NORTH)
KNDZFAA ID NDZ, KNDZ 290456Z 00000KT 10SM CLR 27/25 A3004 RMK AO2 SLP157 T02670250 Follow KNDZ on AV Mobile MILTON WHITING FIELD (SOUTH)
KAPFFAA ID APF, ASOS, KAPF 290453Z AUTO 00000KT 10SM CLR 26/24 A3005 Follow KAPF on AV Mobile NAPLES MUNICIPAL AIRPORT 239-643-9886
KRRFICAO ID KRRF New Port Richey, Tampa Bay Executive Airport
KEVBFAA ID EVB, AWOS-3, KEVB 290147Z 14008KT 10SM FEW035 30/22 A3002 RMK LAST Follow KEVB on AV Mobile New Smyrna Beach, New Smyrna Beach Municipal Airport 124.625 386-409-4705
KOCFFAA ID OCF, AWOS-3, KOCF 290515Z AUTO 00000KT 10SM CLR 25/23 A3006 RMK AO1 Follow KOCF on AV Mobile Ocala, Ocala International Airport-Jim Taylor Field 128.125 352-237-8525
KOBEFAA ID OBE, AWOS-3, KOBE 290515Z AUTO 00000KT 10SM CLR 25/24 A3007 RMK AO2 LTG DSNT W Follow KOBE on AV Mobile Okeechobee County Airport 118.675 863-467-1148
KORLFAA ID ORL, ASOS, KORL 290453Z AUTO 18004KT 10SM CLR 28/22 A3007 RMK AO2 SLP184 T02830222 403560256 Follow KORL on AV Mobile ORLANDO EXECUTIVE AIRPORT 407-658-6753
KMCOFAA ID MCO, ASOS, KMCO 290453Z 29004KT 10SM FEW060 SCT300 28/22 A3007 Follow KMCO on AV Mobile ORLANDO INTERNATIONAL AIRPORT 407-855-5235
KSFBFAA ID SFB, ASOS, KSFB 290453Z AUTO 19008KT 10SM CLR 28/22 A3006 Follow KSFB on AV Mobile ORLANDO SANFORD AIRPORT 407-321-9384
KISMFAA ID ISM, AWOS-3, KISM 290456Z 18005KT 10SM CLR 28/23 A3008 RMK AO2 SLP185 T02780233 403500256 Follow KISM on AV Mobile Orlando, Kissimmee Municipal Airport 128.775 407-847-0533
KOMNFAA ID OMN, AWOS-3, KOMN 282250Z 11010G14KT 10SM SKC 32/23 A300 RMK LAST Follow KOMN on AV Mobile Ormond Beach, Ormond Beach Municipal Airport 118.475 386-615-7084
K28JFAA ID 28J, AWOS-3, K28J 290455Z AUTO 00000KT 10SM OVC050 25/25 A3006 RMK AO2 TSNO Follow K28J on AV Mobile PALATKA 119.92 386-312-2212
KFINFAA ID FIN, AWOS-3, KFIN 290515Z AUTO 20003KT 10SM CLR 26/24 A3005 RMK AO2 T02570235 Follow KFIN on AV Mobile PALM COAST 128.325 386-437-7334
KECPFAA ID ECP, ASOS, KECP 290453Z 00000KT 10SM CLR 26/24 A3003 Follow KECP on AV Mobile PANAMA CITY 119.975 850-235-7857
KPFNICAO ID KPFN, KPFN 030253Z VRB03KT 10SM FEW023 25/23 A2989 Follow KPFN on AV Mobile PANAMA CITY-BAY CTY INTERNATIONAL
KPAMFAA ID PAM, KPAM 290456Z AUTO 24006KT 10SM CLR 29/24 A3004 RMK AO2 SLP175 T02880239 Follow KPAM on AV Mobile Tyndall Air Force Base
KPNSFAA ID PNS, ASOS, KPNS 290453Z AUTO 23004KT 10SM CLR 28/24 A3004 Follow KPNS on AV Mobile PENSACOLA REGIONAL AIRPORT 850-436-4799
KNPAFAA ID NPA, KNPA 290456Z AUTO 00000KT 10SM FEW024 26/23 A3003 RMK AO2 SLP171 T02560233 Follow KNPA on AV Mobile Pensacola, Naval Air Station
K40JFAA ID 40J, AWOS-3PT, K40J 290515Z AUTO 00000KT 10SM CLR 26/24 A3005 RMK AO2 T02570240 Follow K40J on AV Mobile PERRY-FOLEY AIRPORT 118.375 850-838-3526
FA54FAA ID FA54, Belfort CORAL CREEK
KPCMFAA ID PCM, AWOS-3, KPCM 290515Z AUTO 00000KT 10SM SCT043 28/25 A3008 RMK AO2 Follow KPCM on AV Mobile Plant City, Plant City Municipal Airport 120.025 813-764-8259
KPMPFAA ID PMP, ASOS, KPMP 290453Z AUTO 17004KT 10SM CLR 29/24 A3004 RMK AO2 SLP174 T02940244 403330283 Follow KPMP on AV Mobile POMPANO BEACH AIRPARK 954-783-3720
K1J3ICAO ID K1J3 Ponce De Leon Inlet
KPGDFAA ID PGD, ASOS, KPGD 290453Z AUTO 00000KT 10SM FEW065 26/24 A3007 RMK AO2 SLP184 T02610239 403500239 Follow KPGD on AV Mobile PUNTA GORDA CHARLOTTE COUNTY 135.675 941-639-0076
K2J9FAA ID 2J9, AWOS-3, K2J9 290515Z AUTO 25/23 A3006 RMK AO1 Follow K2J9 on AV Mobile QUINCY 118.975 (850) 627-6264
K1J5ICAO ID K1J5 Santa Rosa Coast Guard Station
KSRQFAA ID SRQ, ASOS, KSRQ 290453Z AUTO 34003KT 10SM SCT048 BKN065 29/23 A3005 Follow KSRQ on AV Mobile SARASOTA/BRADENTON INTERNATIONAL . 124.375 941-359-0117
KSEFFAA ID SEF, AWOS-3 SEBRING 119.475 863-655-6424
KSGJFAA ID SGJ, AWOS-3, KSGJ 290458Z 25003KT 10SM CLR 27/23 A3005 RMK AO2 SLP176 T02720233 Follow KSGJ on AV Mobile St. Augustine, St. Augustine Airport 904-824-7084
KPIEFAA ID PIE, ASOS, KPIE 290453Z AUTO 24003KT 10SM CLR 29/22 A3006 Follow KPIE on AV Mobile ST PETERSBURG/CLEARWATER 727-531-3456
KSPGFAA ID SPG, ASOS, KSPG 290453Z AUTO 33003KT 10SM CLR 30/23 A3004 RMK AO2 SLP173 T03000228 403330261 Follow KSPG on AV Mobile ST PETERSBURG WHITTED AIRPORT 118.875 727-821-4334
KSUAFAA ID SUA, AWOS-3, KSUA 290515Z AUTO 00000KT 10SM CLR 28/26 A3006 RMK AO2 Follow KSUA on AV Mobile Stuart, Witham Field Airport 772-692-7399
KTLHFAA ID TLH, ASOS, KTLH 290453Z AUTO 26003KT 10SM CLR 27/24 A3004 Follow KTLH on AV Mobile TALLAHASSEE REGIONAL AIRPORT 850-576-3665
KTBWICAO ID KTBW Tampa Bay Area
KMCFFAA ID MCF, KMCF 290458Z AUTO 26002KT 10SM CLR 29/25 A3006 RMK AO2 SLP182 T02900246 403530246 Follow KMCF on AV Mobile Macdill Air Force Base, Fl.
KTPAFAA ID TPA, ASOS, KTPA 290453Z 31003KT 10SM BKN200 30/23 A3006 Follow KTPA on AV Mobile TAMPA INTERNATIONAL AIRPORT 813-873-7228
KTPFFAA ID TPF, AWOS-3, KTPF 290515Z AUTO 00000KT 10SM CLR 30/25 A3006 RMK AO2 Follow KTPF on AV Mobile Tampa, Peter O Knight Airport 118.925 813-251-6824
KVDFFAA ID VDF, AWOS-3, KVDF 290535Z AUTO 00000KT 10SM CLR 27/25 A3006 RMK AO2 Follow KVDF on AV Mobile Tampa, Vandenberg Airport 121.125 813-630-0924
KVLGICAO ID KVLG The Villages
KVVGICAO ID KVVG, KVVG 290515Z AUTO 10SM 27/24 A2996 RMK A01 Follow KVVG on AV Mobile The Villages
KX68ICAO ID KX68 Titusville, NASA Shuttle Landing Facility
KTIXFAA ID TIX, KTIX 290047Z 14011KT 7SM FEW035 29/26 A3002 RMK LAST Follow KTIX on AV Mobile Titusville
KX21FAA ID X21, AWOS-3 Titusville, Arthur Dunn Air Park 119.725 321-385-0383
KTTSFAA ID TTS, KTTS 290458Z AUTO 20005KT 10SM CLR 27/24 A3004 RMK AO2 SLP177 T02710238 403600247 $ Follow KTTS on AV Mobile Titusville, NASA Shuttle Landing Facility
KVPSFAA ID VPS, KVPS 290455Z 00000KT 10SM FEW026 27/24 A3004 RMK AO2A SLP178 T02700238 $ Follow KVPS on AV Mobile Valparaiso / Eglin Air Force Base
KVNCFAA ID VNC, AWOS-3, KVNC 072115Z AUTO RMK AO2 Follow KVNC on AV Mobile VENICE 119.275
KX90ICAO ID KX90 Venice Long Range Navigation
KVRBFAA ID VRB, ASOS, KVRB 290453Z 17004KT 10SM CLR 27/24 A3006 Follow KVRB on AV Mobile VERO BEACH MUNICIPAL AIRPORT 772-978-9535
F45FAA ID F45, AWOS-3, KANQ 290645Z AUTO 00000KT 10SM CLR 22/17 A2993 RMK Follow  on AV Mobile WEST PALM BEACH 119.975 561-630-6932
KLNAFAA ID LNA, AWOS-3 WEST PALM BEACH 119.925 561-964-0308
KPBIFAA ID PBI, ASOS, KPBI 290453Z 17004KT 10SM FEW021 SCT250 29/25 A3006 Follow KPBI on AV Mobile PALM BEACH INTERNATIONAL 123.75 561-683-2548
FD38FAA ID FD38, Belfort WELLINGTON AERO CLUB
KX60FAA ID X60, AWOS-3, KX60 290515Z AUTO 00000KT 10SM CLR 27/25 A3005 RMK AO1 TSNO Follow KX60 on AV Mobile WILLISTON 118.425 352-528-9949
KGIFFAA ID GIF, ASOS, KGIF 290453Z AUTO 20003KT 10SM FEW060 28/23 A3007 RMK AO2 SLP180 T02780228 403560250 Follow KGIF on AV Mobile WINTER HAVENS GILBERT AIRPORT 133.675 863-956-2097
KZPHFAA ID ZPH, ASOS, KZPH 290535Z AUTO 00000KT 10SM CLR 20/19 A3006 RMK AO2 LTG DSNT S AND SW T01950194 Follow KZPH on AV Mobile ZEPHYRHILLS 118.975 813-780-0031

Click on the AV Mobile icon AV Mobile icon by any station to follow that AWOS feed on AirportView.net Mobile.

Leaders in ADS-B Avemco Insurance Company